This is the latest recevied weather packets stored in our database for station/object IK1QAD-3. If no packets are shown the sender has not sent any weather packets the latest 1 day(s).
| Time | Temp. | Humidity | Pressure | Rain* | Wind** | Luminosity | Snow |
|---|---|---|---|---|---|---|---|
| 1778060023 | 17.78° C | 79% | 1007.8 hPa | 0 mm | - | - | - |
| 1778059719 | 17.22° C | 81% | 1007.8 hPa | 0 mm | - | - | - |
| 1778059415 | 17.22° C | 79% | 1007.8 hPa | 0 mm | - | - | - |
| 1778059113 | 17.22° C | 79% | 1007.7 hPa | 0 mm | - | - | - |
| 1778058807 | 17.78° C | 79% | 1007.8 hPa | 0 mm | - | - | - |
| 1778058524 | 17.78° C | 77% | 1007.7 hPa | 0 mm | - | - | - |
| 1778057918 | 17.22° C | 78% | 1007.7 hPa | 0 mm | - | - | - |
| 1778057616 | 17.22° C | 77% | 1007.9 hPa | 0 mm | - | - | - |
| 1778057310 | 17.22° C | 78% | 1007.9 hPa | 0 mm | - | - | - |
| 1778057022 | 17.22° C | 79% | 1007.9 hPa | 0 mm | - | - | - |
| 1778056415 | 17.22° C | 78% | 1007.9 hPa | 0 mm | - | - | - |
| 1778056115 | 17.22° C | 79% | 1007.9 hPa | 0 mm | - | - | - |
| 1778054924 | 17.22° C | 79% | 1007.9 hPa | 0 mm | - | - | - |
| 1778054605 | 17.22° C | 79% | 1007.9 hPa | 0 mm | - | - | - |
| 1778054015 | 17.22° C | 81% | 1007.9 hPa | 0 mm | - | - | - |
| 1778053712 | 17.22° C | 79% | 1007.9 hPa | 0 mm | - | - | - |
| 1778053105 | 16.67° C | 78% | 1007.8 hPa | 0 mm | - | - | - |
| 1778052516 | 17.22° C | 80% | 1007.8 hPa | 0 mm | - | - | - |
| 1778052212 | 16.67° C | 81% | 1007.7 hPa | 0 mm | - | - | - |
| 1778051904 | 16.67° C | 82% | 1007.6 hPa | 0 mm | - | - | - |
| 1778051620 | 16.11° C | 82% | 1007.6 hPa | 0 mm | - | - | - |
| 1778051317 | 16.11° C | 85% | 1007.5 hPa | 0 mm | - | - | - |
| 1778051015 | 16.11° C | 85% | 1007.5 hPa | 0 mm | - | - | - |
| 1778049814 | 15° C | 89% | 1007.3 hPa | 0 mm | - | - | - |
| 1778048919 | 14.44° C | 93% | 1007.1 hPa | 0 mm | - | - | - |
* Rain latest hour (hover to see other rain measurements)
** Current wind speed in m/s (hover to see current wind gust speed)